createdAt,value
2019-06-01T00:00:22.251Z,18.30
2019-06-01T00:02:56.071Z,18.20
2019-06-01T00:05:22.257Z,18.20
2019-06-01T00:07:51.091Z,18.20
2019-06-01T00:10:20.060Z,18.20
2019-06-01T00:12:49.533Z,18.20
2019-06-01T00:15:18.499Z,18.20
2019-06-01T00:17:47.979Z,18.20
2019-06-01T00:20:16.904Z,18.10
2019-06-01T00:22:45.948Z,18.10
2019-06-01T00:25:15.009Z,18.10
2019-06-01T00:27:44.700Z,18.00
2019-06-01T00:30:26.152Z,17.90
2019-06-01T00:32:45.178Z,17.80
2019-06-01T00:35:14.421Z,17.70
2019-06-01T00:37:43.471Z,17.60
2019-06-01T00:40:12.482Z,17.60
2019-06-01T00:42:41.985Z,17.60
2019-06-01T00:45:11.441Z,17.70
2019-06-01T00:47:40.311Z,17.70
2019-06-01T00:50:09.930Z,17.60
2019-06-01T00:52:38.831Z,17.50
2019-06-01T00:55:08.168Z,17.50
2019-06-01T00:57:37.590Z,17.50
2019-06-01T01:00:07.076Z,17.50
2019-06-01T01:02:36.007Z,17.50
2019-06-01T01:05:11.787Z,17.50
2019-06-01T01:07:41.050Z,17.50
2019-06-01T01:10:10.012Z,17.40
2019-06-01T01:13:04.217Z,17.30
2019-06-01T01:15:33.910Z,17.30
2019-06-01T01:18:02.836Z,17.20
2019-06-01T01:20:31.780Z,17.10
2019-06-01T01:23:01.139Z,17.10
2019-06-01T01:25:29.993Z,17.10
2019-06-01T01:27:58.915Z,17.10
2019-06-01T01:30:28.308Z,17.00
2019-06-01T01:32:58.847Z,16.90
2019-06-01T01:35:27.992Z,16.90
2019-06-01T01:37:58.172Z,16.90
2019-06-01T01:40:27.511Z,16.90
2019-06-01T01:42:56.591Z,16.90
2019-06-01T01:45:25.534Z,16.90
2019-06-01T01:47:55.114Z,16.90
2019-06-01T01:50:26.482Z,17.00
2019-06-01T01:52:57.034Z,17.00
2019-06-01T01:55:26.198Z,16.90
2019-06-01T01:57:55.482Z,16.90
2019-06-01T02:00:44.780Z,16.90
2019-06-01T02:03:13.715Z,16.90
2019-06-01T02:05:42.680Z,17.00
2019-06-01T02:08:11.651Z,16.90
2019-06-01T02:10:40.560Z,16.90
2019-06-01T02:13:09.520Z,16.90
2019-06-01T02:15:40.908Z,16.90
2019-06-01T02:18:10.003Z,16.90
2019-06-01T02:20:38.937Z,16.80
2019-06-01T02:23:08.104Z,16.80
2019-06-01T02:25:37.042Z,16.80
2019-06-01T02:28:06.122Z,15.80
2019-06-01T02:30:35.067Z,16.70
2019-06-01T02:33:04.586Z,16.70
2019-06-01T02:35:34.412Z,16.70
2019-06-01T02:38:05.460Z,16.70
2019-06-01T02:40:34.372Z,16.60
2019-06-01T02:43:04.282Z,16.60
2019-06-01T02:45:33.881Z,16.60
2019-06-01T02:48:03.807Z,16.50
2019-06-01T02:50:33.424Z,16.50
2019-06-01T02:53:03.598Z,16.40
2019-06-01T02:55:32.530Z,16.30
2019-06-01T02:58:02.386Z,16.20
2019-06-01T03:01:12.478Z,16.20
2019-06-01T03:03:42.411Z,16.10
2019-06-01T03:06:15.072Z,15.90
2019-06-01T03:08:47.137Z,15.90
2019-06-01T03:11:17.914Z,15.90
2019-06-01T03:13:48.606Z,15.90
2019-06-01T03:16:20.979Z,15.90
2019-06-01T03:18:52.223Z,15.90
2019-06-01T03:21:24.358Z,16.00
2019-06-01T03:23:56.288Z,16.00
2019-06-01T03:26:28.592Z,16.00
2019-06-01T03:29:00.596Z,15.90
2019-06-01T03:31:29.536Z,16.00
2019-06-01T03:33:58.462Z,15.90
2019-06-01T03:36:27.756Z,15.90
2019-06-01T03:38:57.078Z,15.90
2019-06-01T03:41:26.503Z,16.00
2019-06-01T03:43:55.384Z,16.00
2019-06-01T03:46:24.348Z,16.00
2019-06-01T03:48:53.891Z,16.10
2019-06-01T03:51:22.838Z,16.10
2019-06-01T03:53:51.961Z,16.10
2019-06-01T03:56:20.867Z,16.10
2019-06-01T03:58:49.706Z,16.10
2019-06-01T04:01:19.045Z,16.10
2019-06-01T04:03:48.041Z,16.10
2019-06-01T04:06:16.823Z,16.10
2019-06-01T04:08:45.991Z,16.00
2019-06-01T04:11:14.811Z,16.10
2019-06-01T04:13:43.653Z,16.10
2019-06-01T04:16:12.505Z,16.10
2019-06-01T04:18:41.396Z,16.10
2019-06-01T04:21:10.358Z,16.10
2019-06-01T04:23:39.467Z,16.10
2019-06-01T04:26:08.448Z,16.20
2019-06-01T04:28:37.348Z,16.20
2019-06-01T04:31:06.497Z,16.20
2019-06-01T04:33:35.419Z,16.20
2019-06-01T04:36:04.878Z,16.20
2019-06-01T04:38:33.792Z,16.20
2019-06-01T04:41:03.565Z,16.20
2019-06-01T04:43:32.516Z,16.20
2019-06-01T04:46:02.051Z,16.20
2019-06-01T04:48:31.452Z,16.20
2019-06-01T04:51:00.563Z,16.20
2019-06-01T04:53:29.750Z,15.80
2019-06-01T04:55:59.051Z,16.20
2019-06-01T04:58:28.359Z,16.20
2019-06-01T05:00:57.570Z,16.30
2019-06-01T05:03:26.966Z,16.30
2019-06-01T05:05:56.279Z,16.30
2019-06-01T05:08:25.211Z,16.30
2019-06-01T05:10:54.431Z,16.30
2019-06-01T05:13:25.371Z,16.30
2019-06-01T05:15:54.835Z,16.30
2019-06-01T05:18:23.651Z,16.30
2019-06-01T05:20:52.672Z,16.30
2019-06-01T05:23:24.127Z,16.30
2019-06-01T05:25:53.420Z,16.30
2019-06-01T05:28:22.632Z,16.30
2019-06-01T05:30:51.473Z,16.40
2019-06-01T05:33:35.321Z,16.50
2019-06-01T05:35:51.361Z,16.50
2019-06-01T05:38:20.227Z,16.60
2019-06-01T05:40:52.599Z,16.70
2019-06-01T05:43:21.480Z,16.70
2019-06-01T05:45:51.886Z,16.70
2019-06-01T05:48:25.789Z,16.80
2019-06-01T05:50:51.778Z,16.80
2019-06-01T05:53:20.782Z,16.90
2019-06-01T05:55:49.796Z,16.90
2019-06-01T05:58:22.663Z,17.10
2019-06-01T06:00:51.605Z,17.20
2019-06-01T06:03:26.597Z,17.30
2019-06-01T06:05:52.137Z,17.30
2019-06-01T06:08:22.086Z,17.30
2019-06-01T06:10:51.314Z,17.40
2019-06-01T06:13:21.618Z,17.50
2019-06-01T06:15:52.821Z,17.50
2019-06-01T06:18:23.185Z,17.50
2019-06-01T06:20:52.082Z,17.60
2019-06-01T06:23:22.615Z,17.70
2019-06-01T06:25:51.832Z,17.70
2019-06-01T06:28:20.851Z,17.70
2019-06-01T06:30:49.611Z,17.80
2019-06-01T06:33:19.363Z,18.00
2019-06-01T06:35:48.514Z,18.10
2019-06-01T06:38:17.802Z,18.20
2019-06-01T06:40:46.724Z,18.30
2019-06-01T06:43:22.106Z,18.40
2019-06-01T06:45:47.859Z,18.50
2019-06-01T06:48:16.956Z,18.50
2019-06-01T06:50:46.252Z,18.60
2019-06-01T06:53:29.819Z,18.60
2019-06-01T06:58:18.656Z,18.80
2019-06-01T07:00:47.842Z,18.80
2019-06-01T07:03:16.943Z,18.90
2019-06-01T07:05:49.046Z,19.00
2019-06-01T07:08:18.008Z,19.00
2019-06-01T07:10:46.919Z,19.20
2019-06-01T07:15:44.850Z,19.40
2019-06-01T07:18:13.883Z,19.40
2019-06-01T07:20:43.288Z,19.40
2019-06-01T07:23:12.118Z,19.40
2019-06-01T07:25:44.078Z,19.60
2019-06-01T07:28:13.221Z,19.60
2019-06-01T07:30:50.431Z,19.70
2019-06-01T07:33:15.120Z,19.80
2019-06-01T07:35:47.297Z,19.80
2019-06-01T07:38:17.611Z,19.80
2019-06-01T07:40:46.560Z,20.00
2019-06-01T07:43:15.430Z,20.00
2019-06-01T07:45:44.296Z,20.00
2019-06-01T07:48:13.491Z,20.00
2019-06-01T07:50:42.785Z,20.10
2019-06-01T07:53:14.401Z,20.20
2019-06-01T07:55:43.363Z,20.20
2019-06-01T07:58:22.384Z,20.30
2019-06-01T08:00:51.400Z,20.40
2019-06-01T08:03:22.407Z,20.50
2019-06-01T08:05:55.261Z,20.50
2019-06-01T08:08:25.233Z,20.50
2019-06-01T08:13:33.208Z,20.60
2019-06-01T08:16:03.082Z,20.70
2019-06-01T08:18:35.026Z,20.70
2019-06-01T08:21:04.172Z,20.80
2019-06-01T08:23:33.107Z,20.80
2019-06-01T08:26:02.420Z,20.90
2019-06-01T08:28:35.388Z,21.00
2019-06-01T08:31:04.554Z,21.10
2019-06-01T08:33:35.005Z,21.10
2019-06-01T08:36:04.365Z,21.20
2019-06-01T08:41:03.333Z,21.30
2019-06-01T08:43:35.181Z,21.30
2019-06-01T08:46:04.614Z,21.40
2019-06-01T08:48:35.456Z,21.40
2019-06-01T08:51:05.021Z,21.50
2019-06-01T08:53:34.310Z,21.50
2019-06-01T08:56:03.484Z,21.60
2019-06-01T08:58:36.759Z,21.70
2019-06-01T09:01:05.987Z,21.70
2019-06-01T09:03:39.913Z,21.80
2019-06-01T09:06:05.983Z,21.60
2019-06-01T09:08:35.186Z,21.90
2019-06-01T09:11:04.362Z,21.90
2019-06-01T09:13:33.352Z,21.90
2019-06-01T09:16:05.836Z,22.00
2019-06-01T09:18:35.814Z,22.10
2019-06-01T09:21:05.112Z,22.30
2019-06-01T09:23:34.115Z,22.40
2019-06-01T09:26:03.336Z,22.40
2019-06-01T09:28:36.619Z,22.40
2019-06-01T09:31:06.071Z,22.40
2019-06-01T09:33:36.428Z,22.50
2019-06-01T09:36:05.841Z,22.60
2019-06-01T09:38:35.810Z,22.60
2019-06-01T09:41:05.073Z,22.70
2019-06-01T09:43:35.012Z,22.70
2019-06-01T09:46:03.842Z,22.80
2019-06-01T09:48:33.569Z,22.90
2019-06-01T09:51:02.537Z,23.00
2019-06-01T09:53:32.622Z,23.10
2019-06-01T09:56:02.245Z,23.40
2019-06-01T09:58:32.232Z,23.40
2019-06-01T10:01:01.337Z,23.40
2019-06-01T10:03:30.311Z,23.40
2019-06-01T10:06:02.146Z,23.60
2019-06-01T10:08:32.553Z,23.60
2019-06-01T10:11:01.949Z,23.60
2019-06-01T10:13:32.965Z,23.80
2019-06-01T10:16:02.132Z,24.00
2019-06-01T10:18:31.002Z,24.00
2019-06-01T10:20:59.919Z,24.10
2019-06-01T10:23:30.055Z,24.20
2019-06-01T10:25:59.002Z,24.30
2019-06-01T10:30:56.311Z,24.50
2019-06-01T10:33:25.659Z,24.40
2019-06-01T10:35:54.590Z,24.30
2019-06-01T10:38:23.512Z,24.30
2019-06-01T10:40:52.754Z,24.40
2019-06-01T10:43:21.743Z,24.50
2019-06-01T10:45:50.955Z,24.50
2019-06-01T10:48:20.094Z,24.40
2019-06-01T10:50:49.344Z,24.40
2019-06-01T10:53:18.398Z,24.30
2019-06-01T10:55:47.277Z,24.40
2019-06-01T10:58:16.188Z,24.40
2019-06-01T11:00:51.100Z,24.40
2019-06-01T11:03:32.670Z,24.50
2019-06-01T11:06:04.271Z,24.50
2019-06-01T11:11:09.529Z,24.80
2019-06-01T11:13:41.047Z,24.70
2019-06-01T11:16:09.857Z,24.70
2019-06-01T11:18:39.618Z,24.80
2019-06-01T11:21:08.788Z,25.00
2019-06-01T11:23:37.658Z,24.90
2019-06-01T11:26:06.609Z,25.00
2019-06-01T11:28:36.168Z,25.10
2019-06-01T11:31:06.102Z,25.10
2019-06-01T11:33:36.042Z,25.10
2019-06-01T11:36:05.180Z,25.20
2019-06-01T11:38:34.654Z,25.20
2019-06-01T11:41:03.811Z,25.30
2019-06-01T11:46:01.726Z,25.30
2019-06-01T11:48:30.660Z,25.30
2019-06-01T11:50:59.644Z,25.30
2019-06-01T11:53:31.595Z,25.30
2019-06-01T11:56:00.792Z,25.40
2019-06-01T11:58:29.617Z,25.40
2019-06-01T12:01:01.474Z,25.50
2019-06-01T12:03:30.820Z,25.50
2019-06-01T12:05:59.688Z,25.60
2019-06-01T12:08:33.827Z,25.80
2019-06-01T12:11:00.894Z,25.70
2019-06-01T12:13:30.064Z,25.70
2019-06-01T12:15:58.927Z,25.60
2019-06-01T12:18:27.883Z,25.60
2019-06-01T12:20:57.054Z,25.80
2019-06-01T12:23:26.104Z,25.80
2019-06-01T12:25:54.956Z,25.80
2019-06-01T12:28:24.141Z,25.90
2019-06-01T12:30:53.346Z,25.90
2019-06-01T12:33:22.094Z,26.00
2019-06-01T12:35:51.612Z,26.00
2019-06-01T12:38:20.469Z,26.20
2019-06-01T12:40:49.631Z,26.20
2019-06-01T12:43:18.576Z,26.20
2019-06-01T12:46:04.817Z,26.20
2019-06-01T12:48:19.848Z,26.20
2019-06-01T12:50:50.861Z,26.20
2019-06-01T12:53:19.319Z,26.30
2019-06-01T12:55:48.917Z,26.30
2019-06-01T12:58:18.018Z,26.40
2019-06-01T13:00:48.277Z,26.30
2019-06-01T13:03:17.271Z,26.30
2019-06-01T13:05:46.080Z,26.30
2019-06-01T13:08:15.124Z,26.40
2019-06-01T13:10:45.113Z,26.40
2019-06-01T13:13:14.380Z,26.40
2019-06-01T13:15:43.300Z,26.40
2019-06-01T13:18:12.516Z,26.60
2019-06-01T13:20:43.215Z,26.60
2019-06-01T13:23:12.271Z,26.60
2019-06-01T13:25:41.504Z,26.70
2019-06-01T13:28:10.443Z,26.80
2019-06-01T13:30:39.595Z,26.70
2019-06-01T13:33:08.569Z,26.70
2019-06-01T13:35:37.600Z,27.10
2019-06-01T13:38:12.278Z,27.10
2019-06-01T13:40:37.187Z,27.10
2019-06-01T13:43:06.537Z,27.40
2019-06-01T13:45:35.735Z,27.60
2019-06-01T13:48:04.683Z,27.70
2019-06-01T13:50:33.541Z,27.60
2019-06-01T13:53:02.354Z,28.20
2019-06-01T13:55:31.539Z,28.40
2019-06-01T13:58:00.467Z,28.40
2019-06-01T14:00:30.562Z,28.50
2019-06-01T14:02:59.639Z,29.10
2019-06-01T14:05:28.814Z,29.70
2019-06-01T14:07:57.692Z,29.70
2019-06-01T14:10:26.641Z,30.20
2019-06-01T14:12:55.603Z,30.40
2019-06-01T14:15:24.655Z,30.70
2019-06-01T14:17:54.540Z,31.00
2019-06-01T14:20:23.416Z,30.40
2019-06-01T14:22:54.053Z,31.00
2019-06-01T14:25:23.289Z,30.90
2019-06-01T14:27:52.254Z,31.30
2019-06-01T14:30:24.178Z,32.10
2019-06-01T14:32:54.457Z,32.10
2019-06-01T14:35:23.500Z,30.80
2019-06-01T14:37:53.387Z,30.80
2019-06-01T14:40:22.475Z,30.50
2019-06-01T14:42:53.554Z,30.60
2019-06-01T14:45:22.804Z,32.10
2019-06-01T14:47:51.928Z,32.90
2019-06-01T14:50:22.993Z,33.40
2019-06-01T14:52:53.604Z,33.80
2019-06-01T14:55:22.705Z,33.80
2019-06-01T14:57:52.442Z,34.10
2019-06-01T15:00:21.969Z,33.40
2019-06-01T15:02:51.839Z,33.40
2019-06-01T15:05:21.055Z,32.10
2019-06-01T15:07:50.172Z,32.30
2019-06-01T15:10:19.282Z,32.40
2019-06-01T15:12:53.026Z,31.80
2019-06-01T15:15:19.281Z,31.90
2019-06-01T15:17:49.311Z,32.10
2019-06-01T15:20:18.662Z,32.50
2019-06-01T15:22:47.627Z,32.80
2019-06-01T15:25:16.851Z,32.00
2019-06-01T15:27:45.763Z,31.90
2019-06-01T15:30:15.600Z,31.90
2019-06-01T15:32:44.456Z,32.30
2019-06-01T15:35:13.724Z,32.40
2019-06-01T15:37:42.548Z,32.40
2019-06-01T15:40:12.110Z,32.60
2019-06-01T15:42:40.990Z,32.90
2019-06-01T15:45:10.863Z,33.10
2019-06-01T15:47:39.659Z,33.10
2019-06-01T15:50:09.246Z,32.90
2019-06-01T15:52:38.492Z,32.30
2019-06-01T15:55:08.065Z,32.40
2019-06-01T15:57:36.933Z,32.60
2019-06-01T16:00:06.602Z,32.50
2019-06-01T16:02:35.901Z,32.70
2019-06-01T16:05:05.667Z,32.30
2019-06-01T16:07:34.827Z,32.70
2019-06-01T16:10:06.538Z,33.10
2019-06-01T16:12:34.879Z,33.50
2019-06-01T16:15:03.994Z,32.70
2019-06-01T16:17:33.251Z,32.30
2019-06-01T16:20:02.375Z,32.60
2019-06-01T16:22:31.391Z,32.50
2019-06-01T16:25:00.360Z,32.70
2019-06-01T16:27:29.587Z,32.80
2019-06-01T16:30:00.211Z,32.30
2019-06-01T16:32:29.451Z,32.20
2019-06-01T16:34:58.834Z,31.60
2019-06-01T16:37:27.970Z,31.70
2019-06-01T16:40:02.791Z,32.00
2019-06-01T16:42:28.088Z,31.60
2019-06-01T16:44:57.401Z,31.80
2019-06-01T16:47:26.625Z,32.00
2019-06-01T16:49:55.812Z,32.50
2019-06-01T16:52:25.189Z,32.90
2019-06-01T16:54:54.302Z,33.10
2019-06-01T16:57:23.227Z,33.20
2019-06-01T16:59:53.272Z,33.10
2019-06-01T17:02:22.275Z,32.90
2019-06-01T17:04:51.901Z,32.30
2019-06-01T17:07:21.154Z,32.20
2019-06-01T17:09:50.138Z,32.10
2019-06-01T17:12:19.927Z,32.10
2019-06-01T17:14:49.510Z,32.60
2019-06-01T17:17:18.835Z,32.70
2019-06-01T17:19:47.772Z,33.00
2019-06-01T17:22:16.634Z,33.40
2019-06-01T17:24:45.533Z,33.30
2019-06-01T17:27:14.724Z,33.40
2019-06-01T17:29:43.540Z,33.50
2019-06-01T17:32:23.044Z,33.40
2019-06-01T17:34:43.703Z,33.80
2019-06-01T17:37:12.850Z,33.90
2019-06-01T17:39:41.751Z,33.80
2019-06-01T17:42:10.657Z,33.30
2019-06-01T17:44:39.519Z,33.30
2019-06-01T17:47:09.084Z,33.00
2019-06-01T17:49:38.200Z,33.20
2019-06-01T17:52:08.213Z,33.40
2019-06-01T17:54:37.408Z,33.80
2019-06-01T17:57:07.254Z,33.80
2019-06-01T17:59:36.576Z,33.30
2019-06-01T18:02:05.786Z,32.20
2019-06-01T18:04:35.208Z,31.70
2019-06-01T18:07:04.060Z,31.70
2019-06-01T18:09:33.022Z,31.40
2019-06-01T18:12:02.077Z,31.00
2019-06-01T18:14:30.849Z,30.60
2019-06-01T18:16:59.983Z,30.70
2019-06-01T18:19:28.783Z,30.90
2019-06-01T18:21:57.615Z,31.10
2019-06-01T18:24:26.467Z,31.30
2019-06-01T18:26:55.317Z,31.30
2019-06-01T18:29:24.447Z,31.20
2019-06-01T18:31:53.226Z,31.10
2019-06-01T18:34:22.164Z,30.50
2019-06-01T18:36:51.074Z,30.50
2019-06-01T18:39:19.998Z,30.30
2019-06-01T18:41:49.231Z,30.20
2019-06-01T18:44:18.090Z,29.60
2019-06-01T18:46:47.508Z,29.60
2019-06-01T18:49:18.236Z,29.50
2019-06-01T18:51:47.027Z,29.00
2019-06-01T18:54:15.803Z,28.50
2019-06-01T18:56:44.780Z,28.50
2019-06-01T18:59:14.492Z,28.30
2019-06-01T19:01:43.419Z,28.20
2019-06-01T19:04:16.010Z,27.80
2019-06-01T19:06:45.894Z,27.80
2019-06-01T19:09:15.636Z,27.70
2019-06-01T19:11:44.644Z,27.60
2019-06-01T19:16:43.212Z,27.40
2019-06-01T19:19:12.619Z,27.30
2019-06-01T19:21:41.500Z,27.30
2019-06-01T19:24:10.499Z,27.20
2019-06-01T19:26:39.815Z,27.00
2019-06-01T19:29:08.827Z,27.00
2019-06-01T19:31:38.132Z,26.80
2019-06-01T19:34:06.981Z,26.70
2019-06-01T19:36:36.823Z,26.50
2019-06-01T19:39:07.296Z,26.40
2019-06-01T19:41:44.996Z,26.30
2019-06-01T19:44:07.409Z,26.20
2019-06-01T19:46:36.304Z,26.00
2019-06-01T19:49:05.247Z,25.90
2019-06-01T19:51:34.093Z,25.60
2019-06-01T19:54:02.959Z,25.60
2019-06-01T19:56:31.798Z,25.40
2019-06-01T19:59:00.665Z,25.30
2019-06-01T20:01:29.548Z,25.20
2019-06-01T20:03:58.813Z,25.10
2019-06-01T20:06:27.703Z,25.00
2019-06-01T20:08:56.466Z,24.90
2019-06-01T20:11:25.262Z,24.80
2019-06-01T20:13:54.041Z,24.70
2019-06-01T20:16:22.983Z,24.50
2019-06-01T20:18:52.157Z,24.50
2019-06-01T20:21:22.162Z,24.40
2019-06-01T20:23:51.247Z,24.30
2019-06-01T20:26:20.126Z,24.20
2019-06-01T20:28:49.019Z,24.10
2019-06-01T20:31:18.266Z,24.00
2019-06-01T20:33:47.119Z,24.00
2019-06-01T20:36:16.250Z,23.90
2019-06-01T20:38:45.099Z,23.70
2019-06-01T20:41:15.187Z,23.70
2019-06-01T20:43:44.760Z,23.70
2019-06-01T20:46:14.589Z,23.50
2019-06-01T20:48:43.862Z,23.50
2019-06-01T20:51:13.191Z,23.50
2019-06-01T20:53:42.373Z,23.40
2019-06-01T20:56:11.274Z,23.40
2019-06-01T20:58:40.110Z,23.40
2019-06-01T21:01:09.316Z,23.30
2019-06-01T21:03:38.544Z,23.30
2019-06-01T21:06:07.645Z,23.20
2019-06-01T21:08:36.434Z,23.10
2019-06-01T21:11:05.375Z,22.90
2019-06-01T21:13:34.143Z,22.70
2019-06-01T21:16:03.311Z,22.50
2019-06-01T21:18:41.163Z,22.50
2019-06-01T21:21:11.224Z,22.50
2019-06-01T21:23:40.327Z,22.60
2019-06-01T21:26:09.235Z,22.80
2019-06-01T21:28:38.372Z,22.80
2019-06-01T21:31:07.163Z,22.80
2019-06-01T21:33:36.168Z,22.80
2019-06-01T21:36:05.486Z,22.70
2019-06-01T21:38:38.065Z,22.70
2019-06-01T21:41:05.253Z,22.70
2019-06-01T21:43:35.601Z,22.60
2019-06-01T21:46:05.061Z,22.60
2019-06-01T21:48:34.289Z,22.50
2019-06-01T21:51:03.353Z,22.50
2019-06-01T21:53:32.275Z,22.50
2019-06-01T21:56:01.063Z,22.30
2019-06-01T21:58:29.862Z,22.30
2019-06-01T22:00:59.093Z,22.10
2019-06-01T22:03:28.250Z,22.10
2019-06-01T22:05:57.039Z,22.10
2019-06-01T22:08:27.380Z,22.00
2019-06-01T22:10:56.575Z,21.90
2019-06-01T22:13:27.139Z,21.70
2019-06-01T22:15:55.971Z,21.60
2019-06-01T22:18:25.849Z,21.50
2019-06-01T22:20:54.932Z,21.60
2019-06-01T22:23:23.960Z,21.60
2019-06-01T22:25:52.900Z,21.60
2019-06-01T22:28:22.275Z,21.60
2019-06-01T22:30:51.200Z,21.60
2019-06-01T22:33:21.441Z,21.60
2019-06-01T22:35:50.712Z,21.60
2019-06-01T22:38:19.877Z,21.70
2019-06-01T22:40:48.660Z,21.60
2019-06-01T22:43:35.117Z,21.50
2019-06-01T22:45:48.014Z,21.50
2019-06-01T22:48:17.157Z,21.50
2019-06-01T22:50:46.369Z,21.50
2019-06-01T22:53:15.258Z,21.40
2019-06-01T22:55:44.563Z,21.40
2019-06-01T22:58:13.677Z,21.40
2019-06-01T23:00:42.469Z,21.40
2019-06-01T23:03:11.783Z,21.30
2019-06-01T23:05:40.723Z,21.30
2019-06-01T23:08:09.616Z,21.20
2019-06-01T23:10:38.833Z,21.20
2019-06-01T23:13:07.781Z,21.20
2019-06-01T23:15:36.844Z,21.10
2019-06-01T23:18:05.787Z,21.10
2019-06-01T23:20:34.943Z,21.10
2019-06-01T23:23:04.099Z,21.00
2019-06-01T23:25:32.902Z,21.00
2019-06-01T23:28:02.096Z,21.00
2019-06-01T23:30:32.326Z,20.90
2019-06-01T23:33:01.324Z,20.80
2019-06-01T23:35:30.593Z,20.80
2019-06-01T23:37:59.572Z,20.70
2019-06-01T23:40:28.809Z,20.70
2019-06-01T23:42:57.679Z,20.70
2019-06-01T23:45:26.794Z,20.60
2019-06-01T23:47:55.690Z,20.60
2019-06-01T23:50:25.079Z,20.60
2019-06-01T23:52:53.837Z,20.50
2019-06-01T23:55:23.487Z,20.50
2019-06-01T23:57:52.332Z,20.40
